Time;durP1;ratioP1;P1;durP2;ratioP2;P2;SDS_P1;SDS_P2;PMS_P1;PMS_P2;Temp;Humidity;BMP_temperature;BMP_pressure;BME280_temperature;BME280_humidity;BME280_pressure;Samples;Min_cycle;Max_cycle;Signal;HPM_P1;HPM_P2
2022/10/25 00:00:46;;;;;;;22.75;5.07;;;;;;;11.18;100.00;101158.78;4970619;28;20453;-81
2022/10/25 00:03:11;;;;;;;26.65;5.15;;;;;;;11.17;100.00;101161.41;4973694;28;20055;-81
2022/10/25 00:05:38;;;;;;;22.52;5.15;;;;;;;11.15;100.00;101150.13;4973359;28;20033;-81
2022/10/25 00:08:04;;;;;;;25.83;5.07;;;;;;;11.23;100.00;101166.50;4972373;28;20019;-81
2022/10/25 00:10:29;;;;;;;22.33;4.90;;;;;;;11.26;100.00;101174.25;4972351;28;20088;-80
2022/10/25 00:12:55;;;;;;;19.20;5.70;;;;;;;11.31;100.00;101189.81;4972108;28;20106;-81
2022/10/25 00:15:21;;;;;;;19.08;5.60;;;;;;;11.39;100.00;101185.31;4971325;28;20031;-80
2022/10/25 00:17:46;;;;;;;24.02;5.22;;;;;;;11.39;100.00;101173.09;4973132;28;20117;-80
2022/10/25 00:20:12;;;;;;;17.35;5.25;;;;;;;11.43;100.00;101179.13;4973245;28;20031;-81
2022/10/25 00:22:37;;;;;;;20.83;5.47;;;;;;;11.43;100.00;101179.97;4971859;28;20114;-81
2022/10/25 00:25:04;;;;;;;28.73;6.05;;;;;;;11.42;100.00;101182.63;4970889;28;20085;-81
2022/10/25 00:27:30;;;;;;;25.08;6.00;;;;;;;11.42;100.00;101180.88;4970750;28;20387;-81
2022/10/25 00:29:55;;;;;;;18.52;5.80;;;;;;;11.42;100.00;101180.88;4971433;28;20029;-80
2022/10/25 00:32:21;;;;;;;20.25;5.43;;;;;;;11.42;100.00;101186.09;4970010;28;20485;-80
2022/10/25 00:34:46;;;;;;;17.90;5.45;;;;;;;11.38;100.00;101188.78;4971979;28;20479;-80
2022/10/25 00:37:11;;;;;;;20.70;5.72;;;;;;;11.44;100.00;101197.38;4970823;28;20034;-80
2022/10/25 00:39:36;;;;;;;26.63;5.40;;;;;;;11.52;100.00;101186.75;4970539;28;20037;-80
2022/10/25 00:42:02;;;;;;;26.00;5.32;;;;;;;11.56;100.00;101185.78;4973307;28;20027;-81
2022/10/25 00:44:39;;;;;;;19.65;5.57;;;;;;;11.58;100.00;101186.63;4969172;28;20427;-81
2022/10/25 00:47:26;;;;;;;22.05;5.25;;;;;;;11.59;100.00;101190.94;4971050;28;20121;-81
2022/10/25 00:50:01;;;;;;;22.30;5.30;;;;;;;11.62;100.00;101190.88;4973201;28;20062;-81
2022/10/25 00:52:34;;;;;;;17.40;5.18;;;;;;;11.65;100.00;101195.19;4972054;28;20035;-81
2022/10/25 00:55:01;;;;;;;22.00;5.40;;;;;;;11.64;100.00;101191.72;4971620;28;20462;-81
2022/10/25 00:57:33;;;;;;;19.45;4.78;;;;;;;11.63;100.00;101191.75;4967849;28;20037;-81
2022/10/25 01:00:00;;;;;;;15.80;3.92;;;;;;;11.57;100.00;101186.66;4971675;28;20027;-81
2022/10/25 01:02:26;;;;;;;24.25;4.82;;;;;;;11.55;100.00;101189.31;4970199;28;20023;-81
2022/10/25 01:04:53;;;;;;;23.10;4.53;;;;;;;11.45;100.00;101191.25;4971868;28;20386;-81
2022/10/25 01:07:18;;;;;;;14.90;4.43;;;;;;;11.45;100.00;101193.88;4971167;28;20031;-80
2022/10/25 01:09:43;;;;;;;18.55;5.40;;;;;;;11.43;100.00;101192.16;4971067;28;20033;-80
2022/10/25 01:12:09;;;;;;;22.38;4.95;;;;;;;11.45;100.00;101198.22;4968851;28;20085;-80
2022/10/25 01:14:36;;;;;;;17.35;4.68;;;;;;;11.40;100.00;101198.31;4968007;28;20031;-80
2022/10/25 01:17:07;;;;;;;26.17;5.47;;;;;;;11.44;100.00;101205.22;4971699;28;20058;-81
2022/10/25 01:20:11;;;;;;;20.27;4.70;;;;;;;11.44;100.00;101200.00;4971830;28;20126;-80
2022/10/25 01:23:01;;;;;;;27.85;4.95;;;;;;;11.49;100.00;101207.72;4970573;28;20065;-81
2022/10/25 01:25:29;;;;;;;20.67;5.00;;;;;;;11.46;100.00;101202.56;4965675;28;20554;-80
2022/10/25 01:28:16;;;;;;;15.88;5.03;;;;;;;11.46;100.00;101216.47;4964526;28;20033;-80
2022/10/25 01:31:02;;;;;;;23.75;4.40;;;;;;;11.53;100.00;101211.97;4969979;28;20038;-80
2022/10/25 01:33:48;;;;;;;19.75;3.72;;;;;;;11.57;100.00;101218.84;4966283;28;20117;-81
2022/10/25 01:36:24;;;;;;;21.10;4.10;;;;;;;11.58;100.00;101223.19;4971298;28;20027;-81
2022/10/25 01:38:59;;;;;;;19.98;4.43;;;;;;;11.56;100.00;101222.34;4969155;28;20037;-80
2022/10/25 01:41:53;;;;;;;14.38;3.88;;;;;;;11.60;100.00;101218.78;4969276;28;20035;-80
2022/10/25 01:44:38;;;;;;;26.45;4.60;;;;;;;11.61;100.00;101224.88;4946476;28;20047;-81
2022/10/25 01:47:10;;;;;;;18.02;3.90;;;;;;;11.61;100.00;101224.88;4968327;28;20121;-80
2022/10/25 01:49:49;;;;;;;19.77;4.22;;;;;;;11.55;100.00;101215.41;4972000;28;20085;-80
2022/10/25 01:52:19;;;;;;;25.05;4.93;;;;;;;11.59;100.00;101217.06;4970682;28;20050;-80
2022/10/25 01:54:44;;;;;;;17.27;4.05;;;;;;;11.56;100.00;101213.66;4974003;28;20110;-80
2022/10/25 01:57:31;;;;;;;17.90;4.68;;;;;;;11.52;100.00;101227.69;4968045;28;20126;-80
2022/10/25 02:00:18;;;;;;;15.02;3.90;;;;;;;11.50;100.00;101227.69;4963638;28;20105;-80
2022/10/25 02:03:00;;;;;;;25.30;4.15;;;;;;;11.44;100.00;101227.81;4972522;28;20045;-80
2022/10/25 02:05:44;;;;;;;19.90;4.40;;;;;;;11.38;100.00;101222.72;4963916;28;20487;-80
2022/10/25 02:08:45;;;;;;;22.27;4.20;;;;;;;11.34;100.00;101234.97;4969996;28;20085;-80
2022/10/25 02:11:21;;;;;;;18.08;4.05;;;;;;;11.34;100.00;101241.97;4968818;28;20478;-80
2022/10/25 02:14:03;;;;;;;23.95;4.45;;;;;;;11.29;100.00;101226.41;4962845;28;20463;-80
2022/10/25 02:16:49;;;;;;;19.10;4.78;;;;;;;11.33;100.00;101242.84;4970635;28;20105;-80
2022/10/25 02:19:22;;;;;;;20.98;4.30;;;;;;;11.33;100.00;101248.94;4970426;28;20038;-80
2022/10/25 02:21:50;;;;;;;17.33;4.60;;;;;;;11.30;100.00;101241.16;4968562;28;20082;-80
2022/10/25 02:24:22;;;;;;;21.67;5.40;;;;;;;11.34;100.00;101248.03;4970570;28;20493;-80
2022/10/25 02:26:49;;;;;;;17.80;4.47;;;;;;;11.38;100.00;101248.81;4971258;28;20038;-80
2022/10/25 02:29:16;;;;;;;20.23;5.03;;;;;;;11.41;100.00;101247.03;4983035;28;20031;-80
2022/10/25 02:31:42;;;;;;;19.77;4.82;;;;;;;11.37;100.00;101247.13;4971060;28;20046;-80
2022/10/25 02:34:07;;;;;;;15.18;4.50;;;;;;;11.28;100.00;101240.34;4973082;28;20027;-80
2022/10/25 02:36:33;;;;;;;16.90;4.55;;;;;;;11.28;100.00;101247.28;4972243;28;20468;-80
2022/10/25 02:38:59;;;;;;;21.50;4.95;;;;;;;11.22;100.00;101243.09;4970975;28;20027;-80
2022/10/25 02:41:24;;;;;;;20.42;4.60;;;;;;;11.22;100.00;101248.31;4968456;28;20062;-80
2022/10/25 02:43:50;;;;;;;23.23;4.70;;;;;;;11.22;100.00;101250.91;4972431;28;20035;-81
2022/10/25 02:46:18;;;;;;;22.83;4.70;;;;;;;11.19;100.00;101243.13;4967857;28;20023;-80
2022/10/25 02:48:44;;;;;;;23.02;4.97;;;;;;;11.19;100.00;101254.44;4972497;28;20101;-80
2022/10/25 02:51:11;;;;;;;14.65;4.97;;;;;;;11.21;100.00;101257.84;4971869;28;20478;-81
2022/10/25 02:53:37;;;;;;;21.27;4.72;;;;;;;11.17;100.00;101250.13;4968282;28;20034;-80
2022/10/25 02:56:05;;;;;;;18.30;5.07;;;;;;;11.19;100.00;101259.66;4971623;28;20027;-81
2022/10/25 02:58:33;;;;;;;23.00;5.00;;;;;;;11.15;100.00;101246.69;4972286;28;20470;-80
2022/10/25 03:00:59;;;;;;;22.48;4.95;;;;;;;11.16;100.00;101261.47;4958336;28;20035;-80
2022/10/25 03:03:25;;;;;;;19.63;4.78;;;;;;;11.08;100.00;101251.16;4971051;28;20390;-80
2022/10/25 03:05:50;;;;;;;16.30;4.30;;;;;;;11.07;100.00;101259.88;4971836;28;20043;-80
2022/10/25 03:08:15;;;;;;;15.52;4.55;;;;;;;11.04;100.00;101264.28;4972889;28;20039;-80
2022/10/25 03:10:41;;;;;;;21.83;4.72;;;;;;;11.00;100.00;101266.97;4975100;28;20054;-80
2022/10/25 03:13:06;;;;;;;16.30;4.97;;;;;;;10.98;100.00;101267.88;4974033;28;20051;-80
2022/10/25 03:15:31;;;;;;;17.02;4.90;;;;;;;10.99;100.00;101267.00;4974968;28;20030;-80
2022/10/25 03:17:57;;;;;;;17.73;5.18;;;;;;;11.05;100.00;101260.78;4973772;28;20537;-80
2022/10/25 03:20:22;;;;;;;15.90;4.75;;;;;;;10.99;100.00;101265.25;4975066;28;20037;-81
2022/10/25 03:22:47;;;;;;;22.77;4.90;;;;;;;10.93;100.00;101262.75;4974675;28;20146;-80
2022/10/25 03:25:13;;;;;;;24.60;4.50;;;;;;;10.92;100.00;101281.91;4974684;28;20027;-80
2022/10/25 03:27:38;;;;;;;20.13;4.70;;;;;;;10.90;100.00;101280.22;4973418;28;20422;-81
2022/10/25 03:30:04;;;;;;;15.52;4.43;;;;;;;10.87;100.00;101280.25;4973259;28;20035;-81
2022/10/25 03:32:29;;;;;;;14.18;4.97;;;;;;;10.82;100.00;101285.53;4974200;28;20510;-81
2022/10/25 03:34:54;;;;;;;15.88;4.53;;;;;;;10.78;100.00;101294.31;4972246;28;20038;-80
2022/10/25 03:37:19;;;;;;;19.33;4.90;;;;;;;10.74;100.00;101288.28;4975028;28;20023;-81
2022/10/25 03:39:45;;;;;;;22.58;4.97;;;;;;;10.77;100.00;101300.41;4974905;28;20039;-80
2022/10/25 03:42:10;;;;;;;16.85;4.90;;;;;;;10.76;100.00;101306.53;4973962;28;20027;-81
2022/10/25 03:44:35;;;;;;;15.50;4.82;;;;;;;10.71;100.00;101303.97;4973567;28;20140;-80
2022/10/25 03:47:00;;;;;;;17.05;4.63;;;;;;;10.71;100.00;101310.94;4974491;28;20031;-81
2022/10/25 03:49:26;;;;;;;15.70;5.10;;;;;;;10.76;100.00;101316.97;4974500;28;20049;-81
2022/10/25 03:51:51;;;;;;;25.77;6.00;;;;;;;10.71;100.00;101309.19;4975129;28;20073;-80
2022/10/25 03:54:16;;;;;;;22.38;5.63;;;;;;;10.71;100.00;101303.97;4972878;28;20027;-80
2022/10/25 03:56:42;;;;;;;16.70;5.75;;;;;;;10.73;100.00;101317.00;4973897;28;20482;-81
2022/10/25 03:59:07;;;;;;;20.65;5.82;;;;;;;10.69;100.00;101307.50;4975131;28;20042;-80
2022/10/25 04:01:32;;;;;;;14.95;5.57;;;;;;;10.78;100.00;101320.38;4972918;28;20027;-80
2022/10/25 04:03:57;;;;;;;21.98;5.60;;;;;;;10.73;100.00;101328.31;4974154;28;20038;-81
2022/10/25 04:06:23;;;;;;;15.77;5.45;;;;;;;10.65;100.00;101318.88;4974044;28;20026;-80
2022/10/25 04:08:48;;;;;;;17.20;5.45;;;;;;;10.68;100.00;101324.03;4974843;28;20065;-81
2022/10/25 04:11:13;;;;;;;17.25;5.57;;;;;;;10.69;100.00;101326.63;4972934;28;20434;-80
2022/10/25 04:13:38;;;;;;;16.08;5.15;;;;;;;10.73;100.00;101343.09;4973619;28;20023;-80
2022/10/25 04:16:08;;;;;;;18.83;5.70;;;;;;;10.72;100.00;101336.13;4974121;28;20041;-80
2022/10/25 04:18:34;;;;;;;14.40;5.55;;;;;;;10.64;100.00;101319.75;4973388;28;20122;-80
2022/10/25 04:20:59;;;;;;;20.55;5.63;;;;;;;10.62;100.00;101316.31;4974398;28;20038;-80
2022/10/25 04:23:24;;;;;;;16.38;5.32;;;;;;;10.59;100.00;101322.44;4973765;28;20026;-80
2022/10/25 04:25:50;;;;;;;16.33;5.43;;;;;;;10.54;100.00;101321.66;4972862;28;20030;-80
2022/10/25 04:28:15;;;;;;;19.90;6.63;;;;;;;10.58;100.00;101338.97;4973739;28;20034;-81
2022/10/25 04:30:40;;;;;;;15.57;5.85;;;;;;;10.54;100.00;101338.16;4973722;28;20151;-80
2022/10/25 04:33:06;;;;;;;15.35;5.70;;;;;;;10.53;100.00;101333.84;4969860;28;20062;-80
2022/10/25 04:35:31;;;;;;;21.02;6.55;;;;;;;10.46;100.00;101334.81;4974102;28;20038;-80
2022/10/25 04:37:57;;;;;;;23.42;6.38;;;;;;;10.45;100.00;101333.06;4974185;28;20023;-80
2022/10/25 04:40:23;;;;;;;17.25;6.45;;;;;;;10.43;100.00;101337.47;4973449;28;20105;-80
2022/10/25 04:42:48;;;;;;;23.85;6.45;;;;;;;10.47;100.00;101336.53;4970689;28;20621;-80
2022/10/25 04:45:14;;;;;;;16.27;6.93;;;;;;;10.43;100.00;101334.88;4972656;28;20039;-80
2022/10/25 04:47:39;;;;;;;18.63;6.90;;;;;;;10.47;100.00;101344.34;4972332;28;20023;-80
2022/10/25 04:50:05;;;;;;;17.02;6.53;;;;;;;10.45;100.00;101337.44;4970397;28;20503;-80
2022/10/25 04:52:30;;;;;;;20.23;6.82;;;;;;;10.40;100.00;101332.31;4972565;28;20031;-81
2022/10/25 04:54:56;;;;;;;15.25;6.40;;;;;;;10.42;100.00;101340.94;4971811;28;20078;-80
2022/10/25 04:57:21;;;;;;;18.50;6.90;;;;;;;10.36;100.00;101338.41;4972777;28;20058;-80
2022/10/25 04:59:47;;;;;;;16.58;7.20;;;;;;;10.42;100.00;101345.28;4973039;28;20126;-80
2022/10/25 05:02:13;;;;;;;20.23;7.00;;;;;;;10.47;100.00;101346.09;4972468;28;20031;-80
2022/10/25 05:04:38;;;;;;;23.58;7.22;;;;;;;10.43;100.00;101349.63;4971678;28;20027;-80
2022/10/25 05:07:04;;;;;;;28.13;7.80;;;;;;;10.39;100.00;101354.00;4967875;28;20031;-80
2022/10/25 05:09:29;;;;;;;18.77;7.40;;;;;;;10.35;100.00;101349.72;4972359;28;20442;-80
2022/10/25 05:11:54;;;;;;;23.92;7.05;;;;;;;10.38;100.00;101354.91;4972340;28;20046;-80
2022/10/25 05:14:20;;;;;;;20.08;6.95;;;;;;;10.32;100.00;101347.16;4972258;28;20031;-80
2022/10/25 05:16:45;;;;;;;21.05;6.63;;;;;;;10.38;100.00;101357.50;4973588;28;20029;-80
2022/10/25 05:19:10;;;;;;;26.48;8.43;;;;;;;10.35;100.00;101367.97;4972648;28;20475;-80
2022/10/25 05:21:35;;;;;;;21.90;7.15;;;;;;;10.36;100.00;101359.28;4970239;28;20027;-80
2022/10/25 05:24:01;;;;;;;23.17;7.18;;;;;;;10.36;100.00;101367.09;4965123;28;20643;-80
2022/10/25 05:26:26;;;;;;;24.25;7.18;;;;;;;10.37;100.00;101371.44;4972667;28;20431;-81
2022/10/25 05:28:53;;;;;;;23.45;6.80;;;;;;;10.37;100.00;101375.78;4973308;28;20035;-80
2022/10/25 05:31:26;;;;;;;23.13;6.40;;;;;;;10.37;100.00;101374.03;4969944;28;20035;-80
2022/10/25 05:33:54;;;;;;;17.98;6.65;;;;;;;10.32;100.00;101379.31;4963200;28;20030;-80
2022/10/25 05:36:19;;;;;;;13.07;6.30;;;;;;;10.27;100.00;101369.84;4971678;28;20105;-80
2022/10/25 05:38:44;;;;;;;20.38;6.38;;;;;;;10.26;100.00;101373.31;4972186;28;20563;-80
2022/10/25 05:41:12;;;;;;;18.05;6.97;;;;;;;10.20;100.00;101381.19;4971616;28;20025;-80
2022/10/25 05:43:38;;;;;;;19.60;6.45;;;;;;;10.23;100.00;101378.53;4971533;28;20043;-80
2022/10/25 05:46:04;;;;;;;20.23;7.07;;;;;;;10.26;100.00;101388.94;4972382;28;20483;-80
2022/10/25 05:48:32;;;;;;;20.02;6.70;;;;;;;10.21;100.00;101388.13;4970616;28;20023;-80
2022/10/25 05:51:17;;;;;;;17.73;6.47;;;;;;;10.20;100.00;101394.22;4971506;28;20045;-80
2022/10/25 05:53:44;;;;;;;20.52;6.93;;;;;;;10.24;100.00;101396.78;4971236;28;20058;-80
2022/10/25 05:56:10;;;;;;;21.50;6.80;;;;;;;10.25;100.00;101406.31;4971157;28;20022;-80
2022/10/25 05:58:35;;;;;;;21.70;6.80;;;;;;;10.24;100.00;101401.13;4971159;28;20383;-80
2022/10/25 06:01:00;;;;;;;23.73;7.30;;;;;;;10.24;100.00;101403.72;4972766;28;20030;-80
2022/10/25 06:03:26;;;;;;;27.92;8.18;;;;;;;10.24;100.00;101404.59;4967433;28;20054;-80
2022/10/25 06:05:51;;;;;;;23.50;7.43;;;;;;;10.31;100.00;101403.66;4971172;28;20494;-80
2022/10/25 06:08:16;;;;;;;25.65;8.93;;;;;;;10.38;100.00;101414.00;4970780;28;20027;-80
2022/10/25 06:10:42;;;;;;;28.05;8.82;;;;;;;10.39;100.00;101411.34;4970169;28;20038;-80
2022/10/25 06:13:07;;;;;;;24.98;9.10;;;;;;;10.37;100.00;101410.53;4971459;28;20030;-80
2022/10/25 06:15:32;;;;;;;28.33;9.77;;;;;;;10.49;100.00;101414.69;4971288;28;20458;-80
2022/10/25 06:17:57;;;;;;;31.50;10.13;;;;;;;10.61;100.00;101422.34;4970246;28;20031;-80
2022/10/25 06:20:23;;;;;;;32.28;10.27;;;;;;;10.50;100.00;101396.44;4973057;28;20105;-80
2022/10/25 06:22:48;;;;;;;33.70;11.38;;;;;;;10.58;100.00;101421.53;4972251;28;20033;-79
2022/10/25 06:25:13;;;;;;;29.48;12.10;;;;;;;10.57;100.00;101425.91;4969165;28;20495;-80
2022/10/25 06:27:39;;;;;;;34.05;10.88;;;;;;;10.57;100.00;101436.31;4971524;28;20031;-80
2022/10/25 06:30:04;;;;;;;29.23;11.00;;;;;;;10.58;100.00;101442.41;4968324;28;20110;-80
2022/10/25 06:32:30;;;;;;;31.55;10.25;;;;;;;10.60;100.00;101440.66;4969995;28;20038;-80
2022/10/25 06:34:55;;;;;;;30.20;11.35;;;;;;;10.51;100.00;101428.59;4969194;28;20038;-80
2022/10/25 06:37:21;;;;;;;34.13;11.73;;;;;;;10.61;100.00;101447.56;4973251;28;20026;-80
2022/10/25 06:39:46;;;;;;;44.03;12.60;;;;;;;10.62;100.00;101438.84;4972614;28;20089;-80
2022/10/25 06:42:11;;;;;;;38.42;11.65;;;;;;;10.68;100.00;101450.06;4972392;28;20034;-80
2022/10/25 06:44:36;;;;;;;42.63;12.63;;;;;;;10.66;100.00;101446.63;4972776;28;20047;-80
2022/10/25 06:47:02;;;;;;;41.03;11.75;;;;;;;10.69;100.00;101445.69;4976212;28;20019;-80
2022/10/25 06:49:27;;;;;;;40.08;11.60;;;;;;;10.70;100.00;101455.28;4976267;28;20031;-80
2022/10/25 06:51:52;;;;;;;34.47;11.82;;;;;;;10.68;100.00;101459.63;4971379;28;20037;-80
2022/10/25 06:54:18;;;;;;;35.20;12.05;;;;;;;10.65;100.00;101454.47;4973859;28;20019;-80
2022/10/25 06:56:43;;;;;;;30.90;11.98;;;;;;;10.70;100.00;101463.09;4976301;28;20035;-80
2022/10/25 06:59:08;;;;;;;38.15;11.50;;;;;;;10.67;100.00;101457.91;4975813;28;20034;-80
2022/10/25 07:01:34;;;;;;;41.65;12.15;;;;;;;10.67;100.00;101461.38;4976051;28;20497;-80
2022/10/25 07:04:01;;;;;;;35.15;11.32;;;;;;;10.77;100.00;101469.94;4976031;28;20058;-80
2022/10/25 07:06:34;;;;;;;35.13;11.88;;;;;;;10.80;100.00;101469.91;4973820;28;20031;-79
2022/10/25 07:08:59;;;;;;;33.83;11.77;;;;;;;10.86;100.00;101474.19;4975414;28;20038;-80
2022/10/25 07:11:27;;;;;;;34.92;11.35;;;;;;;10.87;100.00;101474.13;4976783;28;20030;-80
2022/10/25 07:13:52;;;;;;;34.67;11.27;;;;;;;10.85;100.00;101475.91;4975253;28;20037;-80
2022/10/25 07:16:19;;;;;;;32.85;10.98;;;;;;;10.87;100.00;101484.56;4975118;28;20023;-80
2022/10/25 07:18:45;;;;;;;36.35;11.50;;;;;;;10.87;100.00;101486.31;4974958;28;20038;-80
2022/10/25 07:21:16;;;;;;;36.30;11.85;;;;;;;10.83;100.00;101472.47;4972024;28;20029;-80
2022/10/25 07:23:42;;;;;;;31.23;11.50;;;;;;;10.93;100.00;101487.09;4972485;28;20034;-80
2022/10/25 07:26:11;;;;;;;34.42;11.80;;;;;;;11.06;100.00;101486.91;4974267;28;20027;-80
2022/10/25 07:28:36;;;;;;;39.20;11.95;;;;;;;11.16;100.00;101491.97;4973653;28;20165;-79
2022/10/25 07:31:01;;;;;;;37.90;12.50;;;;;;;11.27;100.00;101491.78;4974860;28;20113;-80
2022/10/25 07:33:30;;;;;;;34.08;12.30;;;;;;;11.36;100.00;101496.00;4974919;28;20162;-80
2022/10/25 07:35:56;;;;;;;41.25;12.70;;;;;;;11.43;100.00;101506.31;4973537;28;20042;-79
2022/10/25 07:38:21;;;;;;;42.88;12.27;;;;;;;11.46;100.00;101508.03;4975314;28;20033;-80
2022/10/25 07:40:47;;;;;;;33.45;11.75;;;;;;;11.53;100.00;101509.63;4975283;28;20023;-78
2022/10/25 07:43:12;;;;;;;33.25;12.90;;;;;;;11.58;100.00;101515.66;4972194;28;20442;-79
2022/10/25 07:45:37;;;;;;;38.40;12.30;;;;;;;11.64;100.00;101514.66;4975233;28;20434;-81
2022/10/25 07:48:03;;;;;;;40.35;12.20;;;;;;;11.64;100.00;101512.94;4975387;28;20031;-80
2022/10/25 07:50:29;;;;;;;37.08;12.38;;;;;;;11.64;100.00;101512.06;4974257;28;20308;-80
2022/10/25 07:52:56;;;;;;;34.55;11.98;;;;;;;11.65;100.00;101503.34;4973891;28;20509;-80
2022/10/25 07:55:22;;;;;;;36.90;12.15;;;;;;;11.71;100.00;101518.94;4973363;28;20031;-80
2022/10/25 07:57:47;;;;;;;33.33;12.23;;;;;;;11.76;100.00;101508.38;4973830;28;20031;-80
2022/10/25 08:00:13;;;;;;;32.10;12.23;;;;;;;11.80;100.00;101510.03;4975459;28;20027;-80
2022/10/25 08:02:38;;;;;;;37.83;13.43;;;;;;;11.81;100.00;101515.25;4973953;28;20081;-80
2022/10/25 08:05:03;;;;;;;33.67;12.13;;;;;;;11.85;100.00;101516.09;4974685;28;20531;-80
2022/10/25 08:07:29;;;;;;;34.13;11.98;;;;;;;11.85;100.00;101516.09;4972397;28;20543;-80
2022/10/25 08:09:54;;;;;;;30.90;11.88;;;;;;;11.89;100.00;101528.22;4975305;28;20023;-80
2022/10/25 08:12:19;;;;;;;38.13;11.77;;;;;;;11.84;100.00;101515.25;4975368;28;20587;-80
2022/10/25 08:14:45;;;;;;;29.27;12.68;;;;;;;11.99;100.00;101540.22;4975522;28;20027;-80
2022/10/25 08:17:10;;;;;;;28.00;10.95;;;;;;;12.04;100.00;101540.16;4974972;28;20383;-80
2022/10/25 08:19:35;;;;;;;27.55;10.90;;;;;;;12.07;100.00;101538.34;4961803;28;20027;-80
2022/10/25 08:22:01;;;;;;;27.60;11.23;;;;;;;12.11;100.00;101541.75;4975608;28;20037;-80
2022/10/25 08:24:26;;;;;;;31.08;11.73;;;;;;;12.14;100.00;101537.31;4971787;28;20355;-80
2022/10/25 08:26:51;;;;;;;27.80;10.60;;;;;;;12.10;100.00;101533.06;4964683;28;20035;-80
2022/10/25 08:29:16;;;;;;;26.50;11.10;;;;;;;12.11;100.00;101532.16;4975022;28;20022;-80
2022/10/25 08:31:42;;;;;;;29.05;12.00;;;;;;;12.19;100.00;101532.00;4974973;28;20098;-80
2022/10/25 08:34:07;;;;;;;28.23;11.50;;;;;;;12.15;100.00;101540.78;4975058;28;20027;-80
2022/10/25 08:36:32;;;;;;;28.95;10.18;;;;;;;12.14;100.00;101542.56;4974871;28;20471;-80
2022/10/25 08:38:58;;;;;;;19.00;10.05;;;;;;;12.28;100.00;101542.28;4974739;28;20035;-80
2022/10/25 08:41:49;;;;;;;26.67;10.88;;;;;;;12.34;100.00;101542.16;4974768;28;20114;-80
2022/10/25 08:44:35;;;;;;;21.33;10.00;;;;;;;12.21;100.00;101545.91;4955227;28;20035;-80
2022/10/25 08:47:19;;;;;;;25.50;9.77;;;;;;;12.14;100.00;101544.31;4974300;28;20026;-80
2022/10/25 08:49:44;;;;;;;;;;;;;;;12.14;100.00;101550.41;4975510;28;20071;-80
2022/10/25 08:52:33;;;;;;;20.38;9.95;;;;;;;12.28;100.00;101541.44;4973979;28;19957;-80
2022/10/25 08:55:01;;;;;;;22.55;9.85;;;;;;;12.26;100.00;101553.66;4974966;28;20027;-80
2022/10/25 08:57:30;;;;;;;20.23;9.57;;;;;;;12.27;100.00;101550.19;4974448;28;20019;-80
2022/10/25 09:00:00;;;;;;;19.65;9.68;;;;;;;12.35;100.00;101556.97;4974210;28;20027;-80
2022/10/25 09:02:51;;;;;;;25.15;10.07;;;;;;;12.32;100.00;101554.41;4974206;28;20089;-80
2022/10/25 09:05:28;;;;;;;25.33;9.50;;;;;;;12.38;100.00;101559.50;4965817;28;20399;-80
2022/10/25 09:08:20;;;;;;;18.25;9.00;;;;;;;12.48;100.00;101564.56;4974072;28;20045;-79
2022/10/25 09:11:06;;;;;;;22.25;9.73;;;;;;;12.60;100.00;101559.94;4963459;28;20038;-80
2022/10/25 09:13:38;;;;;;;23.67;9.45;;;;;;;12.67;100.00;101562.44;4973832;28;20517;-80
2022/10/25 09:16:40;;;;;;;19.73;8.60;;;;;;;12.74;100.00;101572.75;4974272;28;20026;-80
2022/10/25 09:19:31;;;;;;;22.80;8.57;;;;;;;12.89;100.00;101572.44;4974312;28;20066;-80
2022/10/25 09:22:01;;;;;;;21.92;8.05;;;;;;;13.02;100.00;101578.25;4973918;28;20118;-80
2022/10/25 09:24:36;;;;;;;22.55;7.47;;;;;;;13.12;100.00;101584.16;4974170;28;20023;-80
2022/10/25 09:27:06;;;;;;;19.23;8.02;;;;;;;13.12;100.00;101584.16;4974170;28;20027;-80
2022/10/25 09:29:38;;;;;;;15.27;6.78;;;;;;;13.06;100.00;101585.16;4973909;28;20082;-80
2022/10/25 09:32:16;;;;;;;18.92;7.28;;;;;;;13.13;100.00;101583.25;4974186;28;20368;-79
2022/10/25 09:34:42;;;;;;;17.90;7.25;;;;;;;13.21;100.00;101590.94;4973982;28;20037;-79
2022/10/25 09:37:16;;;;;;;15.73;7.65;;;;;;;13.24;100.00;101578.69;4973870;28;20445;-80
2022/10/25 09:39:50;;;;;;;16.90;6.55;;;;;;;13.44;100.00;101593.94;4961875;28;20483;-79
2022/10/25 09:42:25;;;;;;;16.05;6.35;;;;;;;13.50;100.00;101591.16;4972783;28;20065;-80
2022/10/25 09:44:58;;;;;;;17.85;6.40;;;;;;;13.56;100.00;101590.16;4974386;28;20027;-80
2022/10/25 09:47:38;;;;;;;11.35;5.95;;;;;;;13.59;100.00;101595.31;4960606;28;20023;-80
2022/10/25 09:50:17;;;;;;;15.23;6.20;;;;;;;13.58;100.00;101593.59;4973303;28;20035;-80
2022/10/25 09:53:04;;;;;;;15.70;6.03;;;;;;;13.56;100.00;101598.88;4973971;28;20038;-80
2022/10/25 09:55:33;;;;;;;12.10;6.20;;;;;;;13.56;100.00;101591.00;4973360;28;20035;-80
2022/10/25 09:57:59;;;;;;;12.15;5.60;;;;;;;13.50;100.00;101599.00;4973737;28;20027;-80
2022/10/25 10:00:25;;;;;;;13.18;6.13;;;;;;;13.54;100.00;101598.06;4973322;28;20038;-80
2022/10/25 10:02:50;;;;;;;14.80;6.38;;;;;;;13.55;100.00;101597.16;4973350;28;20027;-80
2022/10/25 10:05:18;;;;;;;12.88;5.53;;;;;;;13.55;100.00;101599.78;4973174;28;20097;-80
2022/10/25 10:07:45;;;;;;;13.73;5.30;;;;;;;13.59;100.00;101609.28;4973962;28;20033;-80
2022/10/25 10:10:15;;;;;;;12.30;4.85;;;;;;;13.70;100.00;101609.03;4973148;28;20042;-80
2022/10/25 10:12:48;;;;;;;11.45;5.53;;;;;;;13.81;100.00;101596.53;4973782;28;20022;-80
2022/10/25 10:15:19;;;;;;;;;;;;;;;14.09;100.00;101614.16;4973851;28;20026;-79
2022/10/25 10:17:45;;;;;;;15.68;5.47;;;;;;;14.04;100.00;101609.03;4977647;28;19921;-80
2022/10/25 10:20:13;;;;;;;15.25;4.97;;;;;;;13.96;100.00;101618.00;4979989;28;20031;-80
2022/10/25 10:22:49;;;;;;;13.57;5.65;;;;;;;13.87;100.00;101605.16;4980217;28;20023;-80
2022/10/25 10:25:26;;;;;;;13.63;5.05;;;;;;;13.85;100.00;101613.03;4979059;28;20389;-79
2022/10/25 10:27:54;;;;;;;10.30;4.20;;;;;;;13.77;100.00;101626.31;4980064;28;20455;-80
2022/10/25 10:30:23;;;;;;;17.42;5.50;;;;;;;13.77;100.00;101623.72;4979460;28;20034;-80
2022/10/25 10:32:54;;;;;;;11.57;4.50;;;;;;;13.75;100.00;101617.63;4979831;28;20031;-79
2022/10/25 10:35:29;;;;;;;10.32;4.25;;;;;;;13.84;100.00;101629.66;4979711;28;20023;-79
2022/10/25 10:38:26;;;;;;;10.40;4.50;;;;;;;13.91;100.00;101619.88;4979506;28;20033;-80
2022/10/25 10:41:13;;;;;;;9.88;4.57;;;;;;;14.01;100.00;101618.75;4980289;28;20046;-78
2022/10/25 10:43:39;;;;;;;12.05;4.00;;;;;;;14.05;100.00;101623.88;4979804;28;20104;-79
2022/10/25 10:46:12;;;;;;;14.05;4.40;;;;;;;14.15;100.00;101631.50;4979303;28;20035;-80
2022/10/25 10:48:42;;;;;;;14.40;4.60;;;;;;;14.21;100.00;101629.59;4979803;28;20019;-80
2022/10/25 10:51:07;;;;;;;17.90;4.32;;;;;;;14.33;100.00;101632.81;4979777;28;20033;-79
2022/10/25 10:53:33;;;;;;;7.72;3.75;;;;;;;14.41;100.00;101629.06;4979039;28;20046;-79
2022/10/25 10:56:06;;;;;;;11.85;4.13;;;;;;;14.57;100.00;101616.41;4979808;28;20478;-79
2022/10/25 10:58:37;;;;;;;8.00;4.32;;;;;;;14.72;100.00;101608.13;4978992;28;20443;-79
2022/10/25 11:01:04;;;;;;;13.00;4.55;;;;;;;14.88;100.00;101623.44;4979454;28;20038;-79
2022/10/25 11:03:41;;;;;;;10.73;4.53;;;;;;;14.97;100.00;101617.91;4979378;28;20435;-79
2022/10/25 11:06:14;;;;;;;12.85;4.78;;;;;;;14.94;100.00;101615.34;4979442;28;20102;-79
2022/10/25 11:08:40;;;;;;;13.20;4.30;;;;;;;15.01;100.00;101622.16;4979631;28;20030;-79
2022/10/25 11:11:13;;;;;;;6.60;3.72;;;;;;;14.99;100.00;101626.59;4979448;28;20498;-79
2022/10/25 11:13:38;;;;;;;15.65;4.30;;;;;;;15.01;100.00;101619.53;4978913;28;20058;-79
2022/10/25 11:16:21;;;;;;;9.73;3.83;;;;;;;15.18;100.00;101621.66;4979551;28;20058;-80
2022/10/25 11:19:07;;;;;;;18.05;4.60;;;;;;;15.40;100.00;101621.84;4979832;28;20030;-79